Time;durP1;ratioP1;P1;durP2;ratioP2;P2;SDS_P1;SDS_P2;PMS_P1;PMS_P2;Temp;Humidity;BMP_temperature;BMP_pressure;BME280_temperature;BME280_humidity;BME280_pressure;Samples;Min_cycle;Max_cycle;Signal;HPM_P1;HPM_P2
2022/04/23 00:00:02;;;;;;;16.60;10.05;;;;;;;10.40;76.65;98644.31;4377527;32;32781;-67
2022/04/23 00:02:41;;;;;;;13.55;10.25;;;;;;;10.87;74.36;98648.53;4378504;32;34006;-66
2022/04/23 00:05:10;;;;;;;13.38;9.30;;;;;;;10.98;73.95;98640.34;4377822;32;34292;-67
2022/04/23 00:07:38;;;;;;;12.93;9.55;;;;;;;10.54;75.75;98647.28;4378255;32;34735;-66
2022/04/23 00:10:05;;;;;;;14.05;9.68;;;;;;;10.76;74.69;98648.84;4378408;32;33627;-67
2022/04/23 00:12:33;;;;;;;14.82;10.68;;;;;;;10.59;75.54;98651.87;4378192;32;34049;-68
2022/04/23 00:15:00;;;;;;;13.70;9.65;;;;;;;10.92;74.17;98647.69;4378012;32;34207;-67
2022/04/23 00:17:28;;;;;;;13.10;9.45;;;;;;;11.08;73.88;98653.88;4378834;32;34294;-67
2022/04/23 00:19:56;;;;;;;12.95;9.32;;;;;;;10.90;74.43;98654.47;4378501;32;34549;-68
2022/04/23 00:22:23;;;;;;;12.73;9.52;;;;;;;10.13;78.67;98650.03;4378444;32;33958;-67
2022/04/23 00:24:51;;;;;;;13.32;9.27;;;;;;;11.00;74.29;98657.16;4378474;32;33948;-65
2022/04/23 00:27:18;;;;;;;13.98;9.32;;;;;;;11.27;72.90;98657.56;4377966;32;34670;-68
2022/04/23 00:29:46;;;;;;;14.32;9.48;;;;;;;10.86;74.73;98651.50;4377825;32;33216;-68
2022/04/23 00:32:13;;;;;;;13.20;9.73;;;;;;;10.61;75.98;98652.41;4378378;32;34801;-68
2022/04/23 00:34:41;;;;;;;11.95;8.85;;;;;;;11.39;72.99;98650.97;4378168;32;34295;-68
2022/04/23 00:37:09;;;;;;;13.43;9.57;;;;;;;11.09;74.43;98653.56;4378329;32;33962;-64
2022/04/23 00:39:36;;;;;;;13.65;9.63;;;;;;;11.56;72.37;98650.59;4365142;32;34506;-66
2022/04/23 00:42:08;;;;;;;14.63;9.93;;;;;;;11.21;73.99;98658.69;4377864;32;34036;-68
2022/04/23 00:44:37;;;;;;;12.68;9.10;;;;;;;11.22;73.80;98657.56;4377722;32;34452;-67
2022/04/23 00:47:07;;;;;;;13.15;9.77;;;;;;;11.63;72.54;98657.31;4378353;32;34780;-67
2022/04/23 00:49:35;;;;;;;14.20;9.80;;;;;;;11.62;71.71;98655.72;4378195;32;34452;-67
2022/04/23 00:52:03;;;;;;;15.32;10.93;;;;;;;11.19;73.78;98668.22;4378278;32;33599;-67
2022/04/23 00:54:30;;;;;;;13.62;10.38;;;;;;;11.38;73.08;98661.03;4377384;32;35196;-65
2022/04/23 00:56:58;;;;;;;14.27;10.23;;;;;;;11.28;73.64;98661.09;4377589;32;36761;-66
2022/04/23 00:59:27;;;;;;;13.13;9.77;;;;;;;11.33;73.78;98673.81;4377927;32;34233;-67
2022/04/23 01:01:55;;;;;;;14.52;9.60;;;;;;;10.08;79.02;98666.28;4378058;32;33869;-67
2022/04/23 01:04:22;;;;;;;14.50;10.30;;;;;;;10.73;76.37;98668.38;4377718;32;35108;-66
2022/04/23 01:06:50;;;;;;;14.35;10.00;;;;;;;10.90;75.55;98666.13;4378358;32;34103;-66
2022/04/23 01:09:17;;;;;;;15.23;10.43;;;;;;;10.88;74.12;98662.88;4377385;32;33811;-68
2022/04/23 01:11:45;;;;;;;15.63;10.85;;;;;;;10.98;74.18;98670.19;4377761;32;34723;-67
2022/04/23 01:14:13;;;;;;;13.70;8.85;;;;;;;10.90;74.56;98663.44;4377743;32;33990;-68
2022/04/23 01:16:42;;;;;;;11.70;9.32;;;;;;;10.55;76.39;98667.06;4378098;32;34637;-68
2022/04/23 01:19:10;;;;;;;12.23;9.15;;;;;;;10.90;74.77;98658.00;4377939;32;34166;-65
2022/04/23 01:21:37;;;;;;;13.98;9.68;;;;;;;11.02;74.41;98665.84;4378035;32;34000;-66
2022/04/23 01:24:06;;;;;;;13.62;9.73;;;;;;;10.99;74.55;98669.94;4377822;32;35216;-68
2022/04/23 01:26:33;;;;;;;12.27;9.40;;;;;;;11.15;74.25;98664.41;4364642;32;34801;-68
2022/04/23 01:29:01;;;;;;;13.60;9.30;;;;;;;11.22;73.73;98663.00;4377795;32;33635;-66
2022/04/23 01:31:29;;;;;;;12.45;9.02;;;;;;;11.30;73.42;98664.34;4377885;32;34097;-67
2022/04/23 01:33:56;;;;;;;12.77;9.25;;;;;;;11.61;72.39;98669.56;4377748;32;33336;-68
2022/04/23 01:36:24;;;;;;;13.45;9.73;;;;;;;11.50;72.96;98664.19;4377994;32;34854;-65
2022/04/23 01:38:51;;;;;;;15.88;10.40;;;;;;;11.12;74.33;98657.63;4377420;32;34384;-67
2022/04/23 01:41:19;;;;;;;14.65;10.35;;;;;;;11.20;74.17;98667.09;4377734;32;34252;-68
2022/04/23 01:43:46;;;;;;;13.68;9.52;;;;;;;11.58;72.95;98670.16;4377692;32;33896;-68
2022/04/23 01:46:14;;;;;;;13.60;9.77;;;;;;;11.27;73.80;98673.88;4377670;32;34776;-68
2022/04/23 01:48:41;;;;;;;13.40;9.82;;;;;;;11.00;75.14;98670.72;4377943;32;34270;-66
2022/04/23 01:51:10;;;;;;;14.87;10.40;;;;;;;11.13;74.69;98670.13;4377879;32;34893;-65
2022/04/23 01:53:38;;;;;;;13.68;9.63;;;;;;;11.36;73.71;98670.53;4377352;32;34991;-68
2022/04/23 01:56:05;;;;;;;12.75;9.25;;;;;;;11.41;73.53;98670.53;4377614;32;34302;-68
2022/04/23 01:58:32;;;;;;;14.05;9.60;;;;;;;11.57;73.06;98673.94;4377666;32;33676;-67
2022/04/23 02:01:00;;;;;;;13.80;9.82;;;;;;;11.21;74.05;98676.84;4377322;32;34598;-67
2022/04/23 02:03:29;;;;;;;14.07;10.07;;;;;;;11.19;74.50;98673.63;4377526;32;34005;-68
2022/04/23 02:05:57;;;;;;;13.62;9.68;;;;;;;11.41;73.88;98675.97;4377392;32;34767;-68
2022/04/23 02:08:24;;;;;;;14.30;9.90;;;;;;;11.11;75.02;98677.72;4377392;32;33556;-68
2022/04/23 02:10:53;;;;;;;14.32;10.13;;;;;;;11.19;75.04;98684.50;4377239;32;34788;-66
2022/04/23 02:13:20;;;;;;;16.73;11.70;;;;;;;10.97;75.61;98679.41;4377484;32;34337;-67
2022/04/23 02:15:48;;;;;;;16.37;11.45;;;;;;;11.35;74.12;98677.88;4377294;32;34922;-67
2022/04/23 02:18:16;;;;;;;13.35;10.23;;;;;;;11.03;75.28;98678.31;4377680;32;33545;-66
2022/04/23 02:20:44;;;;;;;15.73;10.63;;;;;;;10.95;75.77;98674.28;4377329;32;33757;-68
2022/04/23 02:23:12;;;;;;;16.27;10.90;;;;;;;11.08;75.38;98679.09;4376606;32;34214;-67
2022/04/23 02:25:39;;;;;;;16.62;11.43;;;;;;;11.05;75.48;98679.66;4376996;32;33999;-67
2022/04/23 02:28:07;;;;;;;15.75;10.65;;;;;;;11.07;75.33;98676.66;4377163;32;33450;-68
2022/04/23 02:30:34;;;;;;;16.02;10.90;;;;;;;11.17;74.97;98684.75;4377105;32;34406;-67
2022/04/23 02:33:02;;;;;;;14.85;10.73;;;;;;;11.22;74.44;98686.62;4377274;32;34204;-67
2022/04/23 02:35:31;;;;;;;16.48;11.35;;;;;;;11.30;73.91;98691.50;4376853;32;34682;-68
2022/04/23 02:38:00;;;;;;;16.83;11.60;;;;;;;11.05;75.04;98685.06;4348928;32;33458;-68
2022/04/23 02:40:28;;;;;;;16.92;12.18;;;;;;;10.83;76.16;98690.84;4366488;32;34011;-68
2022/04/23 02:42:56;;;;;;;16.02;11.07;;;;;;;10.84;76.42;98688.94;4376871;32;34209;-67
2022/04/23 02:45:25;;;;;;;16.77;12.43;;;;;;;11.36;73.88;98682.22;4376862;32;34583;-68
2022/04/23 02:47:57;;;;;;;14.73;11.18;;;;;;;10.96;75.44;98692.16;4377040;32;33877;-67
2022/04/23 02:50:28;;;;;;;16.37;11.52;;;;;;;10.97;75.47;98693.81;4376560;32;34095;-66
2022/04/23 02:52:56;;;;;;;16.62;11.45;;;;;;;11.10;75.02;98689.69;4363526;32;33984;-66
2022/04/23 02:55:25;;;;;;;15.70;10.75;;;;;;;11.03;75.15;98689.16;4376666;32;33872;-66
2022/04/23 02:57:53;;;;;;;18.20;11.30;;;;;;;11.52;73.13;98695.72;4376764;32;33553;-66
2022/04/23 03:00:21;;;;;;;16.70;10.70;;;;;;;11.06;74.86;98691.34;4376953;32;33771;-68
2022/04/23 03:02:48;;;;;;;15.75;10.80;;;;;;;11.32;73.59;98692.03;4376826;32;34931;-68
2022/04/23 03:05:16;;;;;;;16.40;11.35;;;;;;;11.23;74.11;98699.13;4376210;32;34022;-66
2022/04/23 03:07:45;;;;;;;14.85;10.57;;;;;;;11.40;73.58;98698.75;4376466;32;33573;-66
2022/04/23 03:10:14;;;;;;;15.38;10.32;;;;;;;11.43;73.12;98695.50;4376472;32;34777;-64
2022/04/23 03:12:43;;;;;;;15.32;10.90;;;;;;;11.46;73.03;98690.31;4376355;32;35087;-68
2022/04/23 03:15:16;;;;;;;16.02;10.55;;;;;;;11.47;73.03;98691.13;4376777;32;34710;-68
2022/04/23 03:17:45;;;;;;;14.77;10.20;;;;;;;11.17;74.12;98683.97;4376414;32;33703;-65
2022/04/23 03:20:14;;;;;;;15.98;10.77;;;;;;;11.30;73.54;98694.22;4376367;32;33919;-65
2022/04/23 03:22:42;;;;;;;14.93;11.05;;;;;;;11.45;73.03;98690.59;4376231;32;34707;-68
2022/04/23 03:25:11;;;;;;;16.90;11.68;;;;;;;11.14;74.15;98693.44;4376727;32;33818;-67
2022/04/23 03:27:39;;;;;;;16.95;11.02;;;;;;;11.64;71.79;98696.16;4376360;32;34368;-68
2022/04/23 03:30:08;;;;;;;16.75;11.27;;;;;;;10.53;76.93;98693.66;4380068;32;34677;-65
2022/04/23 03:32:35;;;;;;;15.65;11.27;;;;;;;10.47;77.01;98700.97;4391728;32;35096;-68
2022/04/23 03:35:05;;;;;;;15.98;11.98;;;;;;;10.68;76.45;98702.56;4379226;32;35032;-66
2022/04/23 03:37:33;;;;;;;16.27;11.82;;;;;;;10.79;75.93;98711.50;4377307;32;33851;-64
2022/04/23 03:40:05;;;;;;;17.98;11.80;;;;;;;11.15;74.34;98705.94;4365303;32;34039;-64
2022/04/23 03:42:32;;;;;;;17.10;11.75;;;;;;;11.07;74.73;98711.94;4378922;32;34238;-64
2022/04/23 03:45:00;;;;;;;15.60;11.70;;;;;;;10.85;75.74;98713.09;4378773;32;33833;-64
2022/04/23 03:47:27;;;;;;;16.98;10.88;;;;;;;11.21;74.33;98715.69;4378468;32;33530;-65
2022/04/23 03:49:55;;;;;;;13.98;10.38;;;;;;;11.23;73.86;98721.66;4378381;32;33789;-67
2022/04/23 03:52:23;;;;;;;17.95;11.65;;;;;;;11.18;74.22;98727.09;4377968;32;34978;-64
2022/04/23 03:54:51;;;;;;;15.02;10.38;;;;;;;11.17;74.40;98724.69;4376832;32;34736;-68
2022/04/23 03:57:19;;;;;;;16.70;11.27;;;;;;;11.21;74.27;98732.00;4378214;32;33482;-68
2022/04/23 03:59:46;;;;;;;14.85;10.65;;;;;;;11.36;73.72;98727.56;4378449;32;33938;-68
2022/04/23 04:02:14;;;;;;;16.45;11.77;;;;;;;11.62;72.76;98729.06;4378287;32;34904;-68
2022/04/23 04:04:42;;;;;;;14.70;10.00;;;;;;;11.44;72.75;98726.97;4378278;32;34012;-63
2022/04/23 04:07:10;;;;;;;15.50;10.88;;;;;;;11.50;72.66;98742.16;4378072;32;33555;-65
2022/04/23 04:09:37;;;;;;;16.58;11.18;;;;;;;11.53;72.18;98736.16;4378169;32;34750;-68
2022/04/23 04:12:06;;;;;;;15.32;11.43;;;;;;;10.70;75.94;98742.19;4352598;32;33478;-69
2022/04/23 04:14:35;;;;;;;15.27;10.77;;;;;;;10.78;75.69;98738.91;4378572;32;34147;-69
2022/04/23 04:17:07;;;;;;;16.35;11.30;;;;;;;10.88;75.99;98736.16;4352233;32;32961;-70
2022/04/23 04:19:35;;;;;;;17.00;11.60;;;;;;;11.70;72.13;98739.34;4378516;32;33967;-68
2022/04/23 04:22:03;;;;;;;17.17;11.70;;;;;;;11.48;73.21;98741.63;4363838;32;34971;-68
2022/04/23 04:24:31;;;;;;;16.27;11.70;;;;;;;11.40;73.18;98740.34;4378362;32;34205;-67
2022/04/23 04:27:00;;;;;;;17.08;11.65;;;;;;;11.53;72.85;98744.31;4378525;32;33688;-66
2022/04/23 04:29:28;;;;;;;15.43;10.73;;;;;;;11.51;72.26;98746.50;4364711;32;33393;-70
2022/04/23 04:31:56;;;;;;;16.58;11.50;;;;;;;11.56;72.46;98751.91;4364763;32;34336;-67
2022/04/23 04:34:28;;;;;;;16.77;11.77;;;;;;;11.38;73.05;98747.94;4378444;32;34605;-64
2022/04/23 04:37:09;;;;;;;14.25;10.52;;;;;;;11.41;73.11;98743.84;4377938;32;34496;-65
2022/04/23 04:39:39;;;;;;;16.08;11.20;;;;;;;11.21;74.35;98748.28;4364758;32;34828;-70
2022/04/23 04:42:07;;;;;;;14.13;9.60;;;;;;;11.52;73.09;98752.75;4364473;32;34921;-67
2022/04/23 04:44:35;;;;;;;15.20;10.55;;;;;;;11.59;73.06;98756.78;4377792;32;34692;-67
2022/04/23 04:47:09;;;;;;;13.98;10.45;;;;;;;11.67;72.68;98756.19;4378306;32;34279;-67
2022/04/23 04:49:37;;;;;;;14.25;10.45;;;;;;;11.56;73.03;98754.62;4377729;32;34918;-67
2022/04/23 04:52:05;;;;;;;15.05;11.00;;;;;;;11.54;73.08;98745.16;4363596;32;34012;-71
2022/04/23 04:54:32;;;;;;;13.73;9.85;;;;;;;11.42;73.66;98748.97;4362128;32;33941;-66
2022/04/23 04:57:02;;;;;;;13.93;10.30;;;;;;;11.39;74.17;98746.84;4363035;32;33550;-64
2022/04/23 05:22:40;;;;;;;13.65;9.05;;;;;;;12.76;70.88;98773.34;4499117;31;226033;-65
2022/04/23 05:25:09;;;;;;;12.52;9.02;;;;;;;12.76;70.88;98773.34;4496494;32;33107;-63
2022/04/23 05:27:36;;;;;;;12.73;9.07;;;;;;;12.17;72.89;98774.41;4497127;31;33866;-65
2022/04/23 05:30:04;;;;;;;11.77;8.70;;;;;;;12.39;71.76;98774.78;4496690;32;34125;-65
2022/04/23 05:32:32;;;;;;;12.15;8.60;;;;;;;12.44;71.61;98774.75;4497190;32;34499;-64
2022/04/23 05:35:02;;;;;;;12.05;8.70;;;;;;;12.53;71.43;98774.94;4497415;31;33551;-64
2022/04/23 05:37:30;;;;;;;12.55;8.27;;;;;;;12.54;71.38;98776.56;4497243;32;33972;-65
2022/04/23 05:39:57;;;;;;;13.00;9.35;;;;;;;12.42;72.05;98778.81;4495921;31;34215;-64
2022/04/23 05:42:25;;;;;;;11.50;8.70;;;;;;;12.68;70.98;98780.25;4497077;32;33843;-65
2022/04/23 05:44:52;;;;;;;12.45;8.90;;;;;;;12.54;71.37;98782.00;4497130;32;33525;-66
2022/04/23 05:47:20;;;;;;;11.07;7.80;;;;;;;12.31;71.99;98780.84;4497385;32;34028;-66
2022/04/23 05:49:48;;;;;;;13.80;9.23;;;;;;;12.51;71.99;98783.38;4496701;32;34119;-64
2022/04/23 05:52:18;;;;;;;11.02;7.93;;;;;;;12.69;71.86;98787.28;4496767;32;33653;-66
2022/04/23 05:54:46;;;;;;;13.40;9.00;;;;;;;13.10;71.76;98796.97;4496150;32;33503;-66
2022/04/23 05:57:14;;;;;;;11.30;8.45;;;;;;;13.20;71.70;98787.91;4496052;31;34047;-65
2022/04/23 05:59:42;;;;;;;10.73;7.90;;;;;;;13.84;69.37;98794.72;4495577;32;33113;-71
2022/04/23 06:02:13;;;;;;;11.50;8.30;;;;;;;13.87;67.28;98787.91;4496093;31;34549;-66
2022/04/23 06:04:41;;;;;;;9.93;7.60;;;;;;;13.75;65.42;98788.31;4496889;32;33890;-66
2022/04/23 06:07:09;;;;;;;11.45;8.27;;;;;;;12.81;66.58;98799.72;4497268;32;33883;-69
2022/04/23 06:09:36;;;;;;;10.93;7.75;;;;;;;13.62;65.33;98795.31;4489272;32;34208;-66
2022/04/23 06:12:04;;;;;;;10.48;7.65;;;;;;;13.13;67.36;98808.12;4481641;32;33695;-66
2022/04/23 06:14:32;;;;;;;10.93;7.05;;;;;;;14.15;64.02;98805.22;4481415;32;34263;-66
2022/04/23 06:16:59;;;;;;;9.95;7.60;;;;;;;14.50;61.32;98809.31;4479692;32;33209;-64
2022/04/23 06:19:31;;;;;;;17.48;11.27;;;;;;;15.19;61.15;98811.44;4486536;32;33969;-69
2022/04/23 06:21:59;;;;;;;10.52;7.20;;;;;;;15.31;62.52;98816.38;4480008;32;33103;-72
2022/04/23 06:24:27;;;;;;;11.18;7.70;;;;;;;15.30;61.54;98812.03;4493091;31;34211;-66
2022/04/23 06:26:54;;;;;;;9.60;6.78;;;;;;;15.81;60.70;98827.47;4496025;32;33584;-67
2022/04/23 06:29:22;;;;;;;9.95;7.20;;;;;;;16.07;55.39;98829.63;4496034;32;34671;-66
2022/04/23 06:31:49;;;;;;;12.60;7.20;;;;;;;14.10;62.53;98830.66;4496057;32;34551;-67
2022/04/23 06:34:17;;;;;;;10.40;7.55;;;;;;;14.22;63.29;98838.41;4485165;32;32645;-65
2022/04/23 06:36:45;;;;;;;10.95;7.37;;;;;;;14.47;60.62;98834.47;4486156;32;34081;-67
2022/04/23 06:39:12;;;;;;;9.48;6.93;;;;;;;14.24;61.89;98843.56;4485211;32;35042;-69
2022/04/23 06:41:40;;;;;;;8.93;6.93;;;;;;;14.56;61.53;98843.66;4486293;32;33887;-67
2022/04/23 06:44:07;;;;;;;9.68;7.03;;;;;;;14.91;59.93;98848.81;4483581;32;33183;-67
2022/04/23 06:46:35;;;;;;;11.38;7.53;;;;;;;14.85;61.87;98844.53;4477861;32;34053;-67
2022/04/23 06:49:05;;;;;;;10.15;7.60;;;;;;;14.65;62.84;98840.25;4469348;32;34194;-70
2022/04/23 06:51:33;;;;;;;10.52;7.53;;;;;;;14.63;63.31;98848.72;4470522;32;34685;-69
2022/04/23 06:54:00;;;;;;;15.35;9.57;;;;;;;14.27;65.52;98854.69;4474763;32;33056;-68
2022/04/23 06:56:28;;;;;;;14.02;9.75;;;;;;;14.88;63.06;98854.84;4485052;32;33251;-67
2022/04/23 06:58:55;;;;;;;11.00;8.25;;;;;;;14.89;62.42;98862.75;4482522;31;35096;-68
2022/04/23 07:01:23;;;;;;;11.95;7.22;;;;;;;14.43;65.17;98855.28;4476924;32;34359;-71
2022/04/23 07:03:51;;;;;;;11.32;8.20;;;;;;;14.73;62.78;98858.69;4469141;32;33099;-69
2022/04/23 07:06:18;;;;;;;9.80;7.50;;;;;;;14.40;63.06;98865.97;4469132;32;34669;-70
2022/04/23 07:08:46;;;;;;;10.05;6.72;;;;;;;15.12;62.35;98871.13;4468826;32;35206;-65
2022/04/23 07:11:14;;;;;;;9.10;6.32;;;;;;;14.57;64.19;98869.81;4475133;32;33876;-70
2022/04/23 07:13:43;;;;;;;9.15;6.60;;;;;;;14.80;62.36;98878.22;4484725;32;33432;-67
2022/04/23 07:16:11;;;;;;;9.35;6.43;;;;;;;14.55;64.01;98877.50;4483766;32;33816;-68
2022/04/23 07:18:39;;;;;;;10.23;6.53;;;;;;;14.72;64.10;98882.41;4484887;32;33642;-68
2022/04/23 07:21:06;;;;;;;7.55;6.18;;;;;;;14.66;64.57;98883.59;4479337;32;33840;-68
2022/04/23 07:26:22;;;;;;;10.45;6.72;;;;;;;13.92;66.04;98872.34;4469133;32;33798;-69
2022/04/23 07:28:50;;;;;;;8.65;6.00;;;;;;;14.47;65.87;98878.16;4476695;32;35034;-68
2022/04/23 07:31:17;;;;;;;9.23;6.37;;;;;;;14.63;63.99;98886.13;4474479;32;34432;-69
2022/04/23 07:39:17;;;;;;;9.18;6.18;;;;;;;14.42;64.91;98900.03;4467985;32;34966;-71
2022/04/23 07:41:45;;;;;;;7.97;6.22;;;;;;;14.59;63.95;98899.56;4481548;32;33643;-68
2022/04/23 07:44:12;;;;;;;8.77;5.72;;;;;;;13.82;64.51;98894.28;4482943;32;34126;-64
2022/04/23 07:46:40;;;;;;;8.85;6.07;;;;;;;13.43;66.10;98890.63;4484189;32;33957;-70
2022/04/23 07:49:09;;;;;;;7.85;5.90;;;;;;;13.58;66.43;98894.28;4484627;32;34378;-70
2022/04/23 07:51:37;;;;;;;8.07;6.45;;;;;;;13.95;67.23;98899.88;4472597;32;34445;-70
2022/04/23 07:54:04;;;;;;;8.32;6.32;;;;;;;14.54;65.24;98905.88;4468869;32;33465;-69
2022/04/23 07:56:32;;;;;;;9.05;7.03;;;;;;;13.96;66.62;98906.13;4468942;32;33855;-66
2022/04/23 07:58:59;;;;;;;9.73;7.30;;;;;;;14.06;65.45;98908.72;4466887;32;34832;-68
2022/04/23 08:01:27;;;;;;;10.15;7.53;;;;;;;13.61;68.24;98912.81;4482986;32;33603;-69
2022/04/23 08:03:54;;;;;;;10.13;7.12;;;;;;;13.96;67.56;98919.75;4483913;32;33398;-70
2022/04/23 08:06:22;;;;;;;10.38;7.87;;;;;;;13.87;68.37;98918.78;4483824;32;33813;-71
2022/04/23 08:08:49;;;;;;;10.65;7.87;;;;;;;14.68;64.97;98918.81;4484428;32;33887;-71
2022/04/23 08:11:17;;;;;;;10.82;7.95;;;;;;;14.27;66.63;98919.34;4471272;32;33439;-68
2022/04/23 08:13:44;;;;;;;11.02;8.27;;;;;;;13.92;67.67;98926.91;4467943;32;33238;-69
2022/04/23 08:16:12;;;;;;;12.93;8.43;;;;;;;13.63;67.95;98926.94;4482676;32;33891;-71
2022/04/23 08:18:39;;;;;;;11.27;8.07;;;;;;;13.80;67.48;98924.59;4480360;32;34061;-67
2022/04/23 08:21:13;;;;;;;12.07;8.48;;;;;;;13.57;68.20;98926.19;4468451;32;34554;-65
2022/04/23 08:23:40;;;;;;;12.27;8.75;;;;;;;13.46;69.53;98920.03;4469039;32;33466;-70
2022/04/23 08:26:08;;;;;;;11.15;8.00;;;;;;;14.24;68.57;98925.41;4484503;32;34041;-67
2022/04/23 08:31:22;;;;;;;12.05;8.93;;;;;;;15.20;63.97;98941.47;4468705;32;34666;-65
2022/04/23 08:33:58;;;;;;;14.63;8.50;;;;;;;14.97;65.01;98930.38;4468626;32;33497;-67
2022/04/23 08:36:27;;;;;;;11.05;8.23;;;;;;;15.16;63.21;98932.25;4467558;32;33674;-67
2022/04/23 08:38:56;;;;;;;11.60;7.75;;;;;;;15.85;59.88;98926.91;4473280;32;33649;-69
2022/04/23 08:41:31;;;;;;;11.10;8.23;;;;;;;15.47;60.08;98926.25;4473657;32;33862;-65
2022/04/23 08:44:06;;;;;;;12.55;7.90;;;;;;;16.19;59.68;98925.69;4468379;32;33087;-66
2022/04/23 08:46:36;;;;;;;11.77;8.63;;;;;;;16.80;57.87;98931.75;4467909;32;34613;-64
2022/04/23 08:49:14;;;;;;;9.30;7.57;;;;;;;15.86;59.12;98933.22;4472517;32;36023;-72
2022/04/23 08:51:45;;;;;;;11.12;7.70;;;;;;;16.29;60.22;98930.94;4484152;32;33713;-71
2022/04/23 08:54:15;;;;;;;11.27;7.65;;;;;;;16.77;55.78;98933.16;4484095;32;34306;-67
2022/04/23 08:56:44;;;;;;;9.95;7.10;;;;;;;16.31;57.62;98928.72;4482066;32;33753;-62
2022/04/23 08:59:13;;;;;;;10.88;7.87;;;;;;;15.14;58.99;98929.00;4483424;32;34322;-72
2022/04/23 09:01:48;;;;;;;9.52;7.75;;;;;;;15.05;59.63;98939.00;4484788;32;34058;-73
2022/04/23 09:04:15;;;;;;;10.45;7.20;;;;;;;15.81;59.14;98947.81;4485204;32;33264;-73
2022/04/23 09:06:45;;;;;;;10.95;7.32;;;;;;;16.43;55.98;98946.53;4485176;32;34920;-68
2022/04/23 09:09:19;;;;;;;9.13;6.62;;;;;;;16.12;57.95;98950.72;4477557;32;35298;-63
2022/04/23 09:11:50;;;;;;;9.50;6.93;;;;;;;16.27;54.69;98946.88;4469411;32;34595;-73
2022/04/23 09:14:23;;;;;;;9.52;6.93;;;;;;;15.95;55.57;98958.75;4469372;32;34242;-73
2022/04/23 09:25:35;;;;;;;8.68;6.10;;;;;;;15.90;57.98;98959.66;4484913;32;33175;-64
2022/04/23 09:28:28;;;;;;;10.27;7.10;;;;;;;15.77;56.66;98965.94;4484062;32;33911;-72
2022/04/23 09:30:56;;;;;;;11.90;7.82;;;;;;;15.65;58.56;98971.84;4469028;32;34015;-64
2022/04/23 09:33:28;;;;;;;11.50;7.87;;;;;;;15.38;58.29;98965.22;4469341;32;34530;-66
2022/04/23 09:35:56;;;;;;;10.73;8.02;;;;;;;15.23;59.91;98970.94;4467961;32;33363;-65
2022/04/23 09:38:27;;;;;;;11.98;8.70;;;;;;;14.54;62.81;98963.19;4473663;32;33871;-64
2022/04/23 09:41:15;;;;;;;12.10;8.77;;;;;;;15.30;61.51;98965.91;4484877;32;34122;-68
2022/04/23 09:43:45;;;;;;;12.77;8.90;;;;;;;15.17;61.00;98975.66;4484760;32;34666;-63
2022/04/23 09:46:13;;;;;;;12.32;8.88;;;;;;;14.93;61.87;98983.16;4484736;32;33328;-63
2022/04/23 09:48:45;;;;;;;13.80;9.45;;;;;;;14.18;63.78;98972.97;4477767;32;33999;-64
2022/04/23 09:51:24;;;;;;;12.95;9.05;;;;;;;14.63;63.22;98968.84;4468968;32;35023;-70
2022/04/23 09:53:54;;;;;;;12.55;8.63;;;;;;;14.59;62.85;98973.25;4477672;32;33875;-64
2022/04/23 09:56:23;;;;;;;11.43;8.75;;;;;;;14.05;64.88;98980.72;4483468;32;33557;-71
2022/04/23 09:58:51;;;;;;;11.90;8.93;;;;;;;14.21;63.87;98978.66;4477196;32;34044;-71
2022/04/23 10:01:20;;;;;;;10.68;7.55;;;;;;;14.29;63.91;98983.44;4468588;32;34289;-64
2022/04/23 10:03:50;;;;;;;10.70;7.90;;;;;;;14.40;62.52;98980.59;4468722;32;34694;-64
2022/04/23 10:06:19;;;;;;;12.37;8.32;;;;;;;14.13;62.74;98976.56;4468151;32;34353;-69
2022/04/23 10:08:57;;;;;;;11.70;8.80;;;;;;;14.03;64.42;98976.69;4474574;32;33808;-65
2022/04/23 10:11:29;;;;;;;11.45;8.10;;;;;;;14.50;62.96;98986.72;4457080;32;34439;-69
2022/04/23 10:13:59;;;;;;;10.75;8.13;;;;;;;14.16;62.94;98989.59;4469485;32;33869;-82
2022/04/23 10:16:32;;;;;;;10.57;7.60;;;;;;;14.02;63.26;98994.16;4469749;32;34320;-67
2022/04/23 10:19:00;;;;;;;11.70;8.13;;;;;;;14.40;62.20;99003.22;4481237;32;34683;-66
2022/04/23 10:21:39;;;;;;;10.23;7.75;;;;;;;14.21;64.80;99003.22;4484704;32;34788;-64
2022/04/23 10:24:18;;;;;;;11.73;7.82;;;;;;;14.52;63.02;99005.53;4477384;32;34660;-66
2022/04/23 10:26:47;;;;;;;11.43;7.80;;;;;;;14.37;64.23;99001.09;4482696;32;33247;-69
2022/04/23 10:29:23;;;;;;;11.55;7.75;;;;;;;14.45;63.53;99002.34;4485201;32;33801;-74
2022/04/23 10:32:10;;;;;;;10.70;8.05;;;;;;;14.71;62.16;98997.41;4485263;32;34375;-74
2022/04/23 10:34:39;;;;;;;11.12;7.22;;;;;;;14.74;60.99;98994.09;4486460;32;33851;-69
2022/04/23 10:37:24;;;;;;;10.40;7.30;;;;;;;14.88;60.21;98999.59;4484842;32;33506;-68
2022/04/23 10:39:51;;;;;;;12.27;7.53;;;;;;;14.92;60.89;99000.63;4483317;32;33135;-67
2022/04/23 10:42:21;;;;;;;9.73;7.40;;;;;;;15.22;60.24;98995.81;4484167;31;34292;-71
2022/04/23 10:44:50;;;;;;;10.80;7.93;;;;;;;14.86;62.16;98999.09;4483756;32;33867;-66
2022/04/23 10:47:28;;;;;;;10.90;7.55;;;;;;;15.04;61.90;99005.66;4485129;32;33431;-66
2022/04/23 10:52:42;;;;;;;10.73;7.35;;;;;;;15.27;59.60;99012.13;4484994;32;35069;-65
2022/04/23 10:55:10;;;;;;;11.15;6.62;;;;;;;15.35;59.14;99014.19;4484904;32;33672;-68
2022/04/23 10:57:39;;;;;;;9.95;6.87;;;;;;;15.38;58.34;99011.69;4483636;32;33408;-67
2022/04/23 11:00:11;;;;;;;11.32;7.03;;;;;;;15.56;57.83;99017.41;4483327;32;34558;-67
2022/04/23 11:02:39;;;;;;;9.20;6.62;;;;;;;15.54;58.12;99019.63;4483822;32;34946;-67
2022/04/23 11:13:55;;;;;;;10.70;7.28;;;;;;;15.62;56.64;99018.13;4483631;32;34245;-68
2022/04/23 11:16:30;;;;;;;10.38;6.80;;;;;;;15.75;58.04;99017.37;4484807;32;34298;-64
2022/04/23 11:18:59;;;;;;;8.80;6.78;;;;;;;15.86;59.22;99026.22;4483675;32;33604;-66
2022/04/23 11:21:32;;;;;;;8.52;6.45;;;;;;;15.67;58.41;99012.56;4483103;32;32585;-66
2022/04/23 11:24:01;;;;;;;10.23;6.50;;;;;;;16.53;56.30;99014.78;4484658;32;33873;-68
2022/04/23 11:26:45;;;;;;;8.20;5.72;;;;;;;16.26;55.79;99024.59;4484682;32;34460;-65
2022/04/23 11:29:14;;;;;;;10.00;6.60;;;;;;;15.64;58.27;99022.19;4484697;32;33487;-67
2022/04/23 11:31:51;;;;;;;9.27;6.47;;;;;;;14.66;60.41;99011.13;4484541;32;33885;-66
2022/04/23 11:34:19;;;;;;;9.70;6.30;;;;;;;14.73;60.48;99017.84;4483794;32;34266;-65
2022/04/23 11:36:47;;;;;;;7.53;5.43;;;;;;;15.05;59.79;99020.94;4484808;32;34086;-72
2022/04/23 11:39:14;;;;;;;9.18;6.30;;;;;;;15.20;58.94;99025.37;4483682;32;33399;-68
2022/04/23 11:41:47;;;;;;;8.73;6.05;;;;;;;15.54;56.80;99031.38;4485241;32;33991;-66
2022/04/23 11:44:18;;;;;;;9.10;6.62;;;;;;;15.63;56.13;99020.56;4484169;32;33999;-66
2022/04/23 11:46:48;;;;;;;10.48;6.43;;;;;;;15.57;55.79;99021.75;4485696;32;34165;-70
2022/04/23 11:49:31;;;;;;;10.85;6.82;;;;;;;15.10;60.61;99027.16;4486056;32;33533;-65
2022/04/23 11:52:09;;;;;;;9.77;6.93;;;;;;;14.86;62.71;99027.22;4484451;32;34760;-67
2022/04/23 11:54:41;;;;;;;9.25;7.12;;;;;;;14.64;63.93;99025.06;4485905;32;34176;-68
2022/04/23 11:57:10;;;;;;;9.88;6.95;;;;;;;14.81;62.33;99030.03;4485822;32;34416;-67
2022/04/23 11:59:39;;;;;;;10.45;7.78;;;;;;;14.67;62.66;99029.94;4484603;32;34229;-66
2022/04/23 12:02:21;;;;;;;10.10;7.35;;;;;;;14.56;64.24;99021.06;4486067;32;33968;-65
2022/04/23 12:04:51;;;;;;;9.77;6.60;;;;;;;14.25;63.75;99025.25;4484166;32;34054;-66
2022/04/23 12:07:20;;;;;;;11.38;7.32;;;;;;;14.55;63.31;99024.09;4485796;32;34021;-67
2022/04/23 12:09:55;;;;;;;11.10;7.07;;;;;;;14.52;63.71;99021.94;4485819;32;33516;-66
2022/04/23 12:12:30;;;;;;;10.05;6.97;;;;;;;15.57;58.58;99021.75;4485569;32;33724;-74
2022/04/23 12:15:09;;;;;;;11.65;7.68;;;;;;;15.76;57.11;99019.00;4485380;32;34930;-66
2022/04/23 12:17:53;;;;;;;8.65;6.50;;;;;;;15.79;57.06;99016.47;4472980;32;34591;-67
2022/04/23 12:20:24;;;;;;;9.10;6.78;;;;;;;15.99;57.14;99012.53;4469581;32;33075;-75
2022/04/23 12:23:03;;;;;;;10.18;6.90;;;;;;;15.99;58.18;99014.47;4480073;32;33958;-63
2022/04/23 12:25:31;;;;;;;9.82;6.55;;;;;;;15.29;59.81;99008.00;4485501;32;34304;-72
2022/04/23 12:40:44;;;;;;;10.30;6.22;;;;;;;16.43;55.91;99014.97;4485804;32;33864;-72